Time;durP1;ratioP1;P1;durP2;ratioP2;P2;SDS_P1;SDS_P2;PMS_P1;PMS_P2;Temp;Humidity;BMP_temperature;BMP_pressure;BME280_temperature;BME280_humidity;BME280_pressure;Samples;Min_cycle;Max_cycle;Signal;HPM_P1;HPM_P2
2021/07/26 00:01:23;;;;;;;24.10;16.90;;;;;;;21.07;56.59;100230.71;1718648;81;26065;-72
2021/07/26 00:03:49;;;;;;;25.35;18.85;;;;;;;21.01;56.69;100228.06;1716322;81;27503;-72
2021/07/26 00:06:16;;;;;;;28.05;17.70;;;;;;;20.99;56.82;100233.30;1721769;81;26141;-72
2021/07/26 00:08:41;;;;;;;24.00;17.07;;;;;;;20.94;56.95;100225.55;1724113;81;25787;-72
2021/07/26 00:11:11;;;;;;;26.37;17.85;;;;;;;20.90;57.05;100221.89;1729126;81;25865;-72
2021/07/26 00:13:38;;;;;;;23.98;17.70;;;;;;;20.89;57.17;100228.34;1720215;81;25836;-72
2021/07/26 00:16:06;;;;;;;25.02;18.12;;;;;;;20.83;57.26;100221.59;1735943;80;27462;-72
2021/07/26 00:18:33;;;;;;;28.38;16.55;;;;;;;20.80;57.40;100227.86;1739761;80;26467;-70
2021/07/26 00:21:01;;;;;;;26.77;17.57;;;;;;;20.76;57.53;100222.34;1745010;80;25767;-70
2021/07/26 00:23:28;;;;;;;22.70;17.60;;;;;;;20.74;57.67;100215.17;1713100;81;25885;-70
2021/07/26 00:25:54;;;;;;;39.70;18.52;;;;;;;20.70;57.70;100216.96;1718842;81;25996;-70
2021/07/26 00:28:20;;;;;;;27.25;17.77;;;;;;;20.64;57.87;100210.22;1713995;81;27476;-70
2021/07/26 00:30:46;;;;;;;23.47;18.40;;;;;;;20.60;58.03;100211.50;1714026;81;26522;-70
2021/07/26 00:34:06;;;;;;;29.75;18.05;;;;;;;20.59;58.14;100210.28;1698541;81;26348;-71
2021/07/26 00:36:44;;;;;;;37.63;17.80;;;;;;;20.58;58.21;100212.64;1701177;80;25888;-71
2021/07/26 00:39:13;;;;;;;37.90;18.32;;;;;;;20.53;58.40;100204.03;1732827;80;26345;-71
2021/07/26 00:41:40;;;;;;;28.00;18.48;;;;;;;20.50;58.52;100204.31;1712685;82;27400;-70
2021/07/26 00:44:06;;;;;;;32.15;18.82;;;;;;;20.48;58.63;100203.59;1735520;80;25873;-71
2021/07/26 00:46:33;;;;;;;26.65;19.05;;;;;;;20.47;58.73;100200.52;1740717;80;26122;-71
2021/07/26 00:49:03;;;;;;;27.77;18.65;;;;;;;20.45;58.83;100207.95;1736999;80;25798;-71
2021/07/26 00:51:30;;;;;;;28.47;19.25;;;;;;;20.37;59.00;100214.93;1701778;82;25934;-71
2021/07/26 00:53:57;;;;;;;24.00;17.75;;;;;;;20.36;59.15;100216.44;1740524;80;27390;-71
2021/07/26 00:56:23;;;;;;;31.42;19.70;;;;;;;20.33;59.28;100215.34;1734220;80;25731;-71
2021/07/26 00:58:50;;;;;;;29.67;19.35;;;;;;;20.32;59.36;100214.98;1736130;80;26118;-72
2021/07/26 01:01:17;;;;;;;34.70;19.23;;;;;;;20.28;59.49;100214.41;1734953;80;26344;-72
2021/07/26 01:03:44;;;;;;;29.15;19.62;;;;;;;20.26;59.61;100211.46;1740046;80;25813;-71
2021/07/26 01:06:12;;;;;;;24.47;19.27;;;;;;;20.23;59.74;100215.32;1731156;80;28377;-71
2021/07/26 01:08:40;;;;;;;25.15;19.50;;;;;;;20.21;59.88;100212.38;1736032;80;25861;-72
2021/07/26 01:11:07;;;;;;;25.02;19.55;;;;;;;20.19;60.00;100213.02;1746259;80;26387;-71
2021/07/26 01:13:33;;;;;;;24.82;18.25;;;;;;;20.16;60.09;100216.87;1745641;80;26080;-71
2021/07/26 01:15:59;;;;;;;24.00;18.60;;;;;;;20.13;60.17;100221.23;1728253;80;25818;-72
2021/07/26 01:18:32;;;;;;;25.75;18.75;;;;;;;20.10;60.33;100224.23;1721412;81;27435;-71
2021/07/26 01:21:04;;;;;;;27.25;19.50;;;;;;;20.09;60.39;100217.92;1724367;82;25850;-71
2021/07/26 01:23:34;;;;;;;33.02;19.02;;;;;;;20.08;60.46;100216.70;1726942;81;25767;-70
2021/07/26 01:26:03;;;;;;;30.92;19.55;;;;;;;19.99;60.62;100206.14;1726125;81;25886;-70
2021/07/26 01:28:36;;;;;;;27.52;20.50;;;;;;;20.03;60.74;100216.25;1724229;81;26080;-71
2021/07/26 01:31:03;;;;;;;28.60;19.55;;;;;;;20.00;60.79;100217.39;1722048;82;28088;-71
2021/07/26 01:33:30;;;;;;;31.27;20.60;;;;;;;19.99;60.92;100216.16;1715192;81;25955;-71
2021/07/26 01:35:56;;;;;;;35.05;19.27;;;;;;;19.97;61.00;100207.28;1717959;82;26512;-71
2021/07/26 01:38:22;;;;;;;31.65;20.02;;;;;;;19.95;61.08;100213.36;1718230;81;26381;-71
2021/07/26 01:40:55;;;;;;;30.75;20.62;;;;;;;19.93;61.10;100222.15;1718455;81;25778;-71
2021/07/26 01:43:31;;;;;;;23.35;17.37;;;;;;;19.91;61.25;100221.42;1723496;81;25925;-71
2021/07/26 01:46:04;;;;;;;24.90;19.75;;;;;;;19.87;61.26;100215.90;1719244;81;25919;-72
2021/07/26 01:48:38;;;;;;;29.23;18.92;;;;;;;19.84;61.43;100215.67;1725331;81;25910;-71
2021/07/26 01:51:17;;;;;;;29.18;19.17;;;;;;;19.84;61.49;100224.33;1691064;82;26422;-73
2021/07/26 01:53:45;;;;;;;27.93;19.67;;;;;;;19.81;61.60;100220.52;1721712;81;25839;-71
2021/07/26 01:56:14;;;;;;;27.45;19.42;;;;;;;19.79;61.68;100224.73;1721378;81;28551;-71
2021/07/26 01:58:39;;;;;;;29.98;20.62;;;;;;;19.77;61.72;100225.37;1708752;81;26384;-71
2021/07/26 02:01:05;;;;;;;30.92;20.10;;;;;;;19.75;61.87;100228.22;1712046;81;26091;-71
2021/07/26 02:03:31;;;;;;;25.37;18.98;;;;;;;19.73;61.89;100228.86;1717668;81;25958;-71
2021/07/26 02:05:57;;;;;;;24.65;18.12;;;;;;;19.72;62.04;100230.35;1724336;81;25825;-71
2021/07/26 02:08:23;;;;;;;21.52;18.07;;;;;;;19.71;62.08;100229.98;1716087;81;27404;-71
2021/07/26 02:10:49;;;;;;;24.32;18.05;;;;;;;19.68;62.16;100232.48;1729744;82;25898;-71
2021/07/26 02:13:15;;;;;;;26.07;18.12;;;;;;;19.67;62.22;100234.83;1723335;82;25924;-72
2021/07/26 02:15:41;;;;;;;25.35;18.27;;;;;;;19.65;62.27;100241.40;1726609;80;25817;-71
2021/07/26 02:18:07;;;;;;;27.48;18.85;;;;;;;19.64;62.37;100245.12;1742162;80;25866;-71
2021/07/26 02:20:33;;;;;;;24.37;18.40;;;;;;;19.63;62.40;100242.03;1737178;80;28510;-71
2021/07/26 02:22:58;;;;;;;27.45;18.82;;;;;;;19.61;62.48;100239.45;1742562;80;25889;-71
2021/07/26 02:25:24;;;;;;;25.95;18.50;;;;;;;19.59;62.54;100240.58;1737726;80;25922;-71
2021/07/26 02:27:50;;;;;;;23.87;18.70;;;;;;;19.56;62.59;100234.05;1738148;80;26062;-71
2021/07/26 02:30:16;;;;;;;29.32;18.90;;;;;;;19.53;62.69;100236.54;1706061;81;26033;-71
2021/07/26 02:32:42;;;;;;;24.30;18.48;;;;;;;19.52;62.77;100238.89;1740508;80;27407;-71
2021/07/26 02:35:10;;;;;;;26.40;19.05;;;;;;;19.50;62.81;100245.42;1737998;80;26429;-71
2021/07/26 02:37:36;;;;;;;32.88;19.15;;;;;;;19.46;62.88;100241.61;1744435;80;25814;-71
2021/07/26 02:40:03;;;;;;;28.23;19.55;;;;;;;19.44;62.93;100245.45;1742239;80;25919;-71
2021/07/26 02:42:29;;;;;;;28.50;20.00;;;;;;;19.41;63.02;100244.36;1738820;80;26679;-71
2021/07/26 02:44:55;;;;;;;24.60;17.87;;;;;;;19.40;63.11;100231.77;1740014;80;28438;-71
2021/07/26 02:47:20;;;;;;;24.90;18.92;;;;;;;19.37;63.14;100227.46;1739041;80;26038;-72
2021/07/26 02:49:46;;;;;;;29.70;20.00;;;;;;;19.36;63.21;100231.67;1741433;80;25859;-72
2021/07/26 02:52:12;;;;;;;36.85;20.68;;;;;;;19.34;63.30;100235.88;1735540;80;26585;-72
2021/07/26 02:54:38;;;;;;;33.55;22.15;;;;;;;19.33;63.36;100233.30;1742101;80;26270;-72
2021/07/26 02:57:04;;;;;;;31.37;22.70;;;;;;;19.33;63.46;100232.80;1736860;80;28075;-72
2021/07/26 02:59:30;;;;;;;32.85;22.82;;;;;;;19.31;63.42;100228.48;1740038;80;25877;-72
2021/07/26 03:01:58;;;;;;;30.97;22.65;;;;;;;19.28;63.51;100230.11;1738193;80;25930;-71
2021/07/26 03:04:24;;;;;;;30.27;21.42;;;;;;;19.25;63.60;100229.02;1740381;80;26336;-72
2021/07/26 03:06:49;;;;;;;33.73;21.87;;;;;;;19.22;63.70;100234.22;1740202;80;25878;-72
2021/07/26 03:09:15;;;;;;;33.23;21.97;;;;;;;19.20;63.83;100233.98;1745050;80;28044;-72
2021/07/26 03:11:41;;;;;;;33.83;22.70;;;;;;;19.16;63.91;100223.87;1740407;80;25784;-73
2021/07/26 03:14:07;;;;;;;27.42;21.05;;;;;;;19.12;64.06;100217.84;1740264;80;25857;-72
2021/07/26 03:16:35;;;;;;;27.90;21.00;;;;;;;19.10;64.17;100218.47;1737797;82;25919;-72
2021/07/26 03:19:01;;;;;;;43.70;23.10;;;;;;;19.08;64.25;100225.89;1736093;80;25859;-72
2021/07/26 03:21:27;;;;;;;30.17;20.95;;;;;;;19.08;64.34;100229.10;1745937;80;27572;-71
2021/07/26 03:23:53;;;;;;;28.45;20.20;;;;;;;19.06;64.44;100234.66;1732623;80;25810;-72
2021/07/26 03:26:19;;;;;;;27.48;20.05;;;;;;;19.05;64.51;100231.58;1745591;80;25686;-71
2021/07/26 03:28:45;;;;;;;29.45;20.85;;;;;;;19.05;64.63;100241.09;1741176;80;26056;-72
2021/07/26 03:31:11;;;;;;;31.05;21.55;;;;;;;19.04;64.67;100233.93;1741869;80;26149;-72
2021/07/26 03:33:37;;;;;;;28.32;21.15;;;;;;;19.04;64.79;100233.07;1738882;80;27343;-72
2021/07/26 03:36:03;;;;;;;29.18;21.05;;;;;;;19.04;64.81;100233.07;1738738;80;25409;-72
2021/07/26 03:38:29;;;;;;;28.60;21.07;;;;;;;19.05;64.90;100235.66;1717842;81;25839;-72
2021/07/26 03:40:55;;;;;;;26.25;21.10;;;;;;;19.07;64.98;100242.31;1738018;80;26347;-72
2021/07/26 03:43:21;;;;;;;34.80;20.75;;;;;;;19.10;65.00;100233.91;1723033;81;26574;-72
2021/07/26 03:45:47;;;;;;;34.60;20.72;;;;;;;19.11;65.02;100238.34;1733432;80;27421;-72
2021/07/26 03:48:13;;;;;;;34.23;21.85;;;;;;;19.11;65.06;100239.20;1723248;82;25981;-72
2021/07/26 03:50:39;;;;;;;28.25;20.52;;;;;;;19.11;65.16;100233.77;1707068;81;25820;-72
2021/07/26 03:53:05;;;;;;;30.88;20.50;;;;;;;19.11;65.20;100231.06;1725742;81;25795;-72
2021/07/26 03:55:34;;;;;;;27.48;20.10;;;;;;;19.11;65.24;100235.13;1711648;81;25843;-72
2021/07/26 03:58:02;;;;;;;26.85;19.65;;;;;;;19.10;65.34;100230.69;1741166;80;27484;-70
2021/07/26 04:00:30;;;;;;;25.82;20.72;;;;;;;19.06;65.34;100233.80;1739874;80;25720;-70
2021/07/26 04:05:56;;;;;;;28.62;20.77;;;;;;;19.04;65.54;100235.29;1737639;82;25799;-70
2021/07/26 04:08:22;;;;;;;32.78;21.10;;;;;;;19.04;65.62;100231.22;1736857;80;25924;-70
2021/07/26 04:10:53;;;;;;;36.00;20.25;;;;;;;19.07;65.64;100235.53;1732409;80;25921;-70
2021/07/26 04:13:13;;;;;;;31.40;21.35;;;;;;;19.07;65.72;100228.73;1740596;80;25799;-71
2021/07/26 04:15:45;;;;;;;29.37;20.02;;;;;;;19.09;65.69;100235.77;1742181;80;25806;-71
2021/07/26 04:18:09;;;;;;;26.25;20.20;;;;;;;19.12;65.70;100238.71;1732307;80;26469;-70
2021/07/26 04:20:35;;;;;;;26.33;19.65;;;;;;;19.10;65.78;100236.13;1738074;80;25790;-71
2021/07/26 04:23:00;;;;;;;29.00;20.20;;;;;;;19.16;65.82;100242.03;1742114;80;27991;-71
2021/07/26 04:25:28;;;;;;;28.87;19.75;;;;;;;19.18;65.77;100241.40;1736129;80;26520;-71
2021/07/26 04:27:54;;;;;;;27.95;19.02;;;;;;;19.18;65.74;100234.61;1741073;80;25707;-71
2021/07/26 04:30:20;;;;;;;29.10;19.92;;;;;;;19.18;65.79;100242.76;1740211;80;25750;-71
2021/07/26 04:32:47;;;;;;;28.23;20.30;;;;;;;19.19;65.77;100234.97;1739449;80;25765;-71
2021/07/26 04:35:16;;;;;;;26.30;18.95;;;;;;;19.19;65.79;100234.48;1733797;80;28195;-71
2021/07/26 04:37:43;;;;;;;29.00;19.17;;;;;;;19.10;65.83;100212.17;1715091;81;25862;-71
2021/07/26 04:40:11;;;;;;;26.65;19.17;;;;;;;19.19;65.84;100220.03;1736536;80;25806;-71
2021/07/26 04:42:40;;;;;;;31.33;20.05;;;;;;;19.17;65.91;100212.02;1740244;80;25926;-71
2021/07/26 04:45:09;;;;;;;28.12;20.08;;;;;;;19.20;66.03;100216.32;1736869;80;25866;-71
2021/07/26 04:47:35;;;;;;;29.72;18.90;;;;;;;19.20;66.03;100210.89;1675531;83;27393;-72
2021/07/26 04:50:01;;;;;;;27.75;18.67;;;;;;;19.25;66.14;100211.35;1744136;80;25774;-71
2021/07/26 04:52:27;;;;;;;27.07;18.67;;;;;;;19.29;66.14;100207.38;1734416;80;25886;-71
2021/07/26 04:54:54;;;;;;;26.82;17.62;;;;;;;19.32;66.13;100195.74;1737072;80;25888;-70
2021/07/26 04:57:19;;;;;;;29.12;18.82;;;;;;;19.40;66.19;100201.88;1739383;80;25723;-71
2021/07/26 04:59:45;;;;;;;28.38;18.17;;;;;;;19.42;66.14;100189.01;1740713;80;27982;-71
2021/07/26 05:02:12;;;;;;;27.65;18.55;;;;;;;19.41;66.23;100192.72;1733365;80;26130;-71
2021/07/26 05:04:39;;;;;;;27.05;17.07;;;;;;;19.50;66.25;100191.05;1735891;80;25878;-71
2021/07/26 05:07:05;;;;;;;27.80;17.00;;;;;;;19.58;66.17;100189.42;1736325;80;26252;-71
2021/07/26 05:09:38;;;;;;;27.05;17.07;;;;;;;19.62;66.10;100185.94;1741196;80;25913;-73
2021/07/26 05:12:12;;;;;;;;;;;;;;;19.67;66.08;100184.53;1745734;80;27502;-71
2021/07/26 05:14:49;;;;;;;26.82;17.73;;;;;;;19.70;66.03;100181.54;1741910;80;25829;-72
2021/07/26 05:17:19;;;;;;;32.13;19.48;;;;;;;19.72;65.99;100190.42;1724042;81;25898;-72
2021/07/26 05:19:43;;;;;;;26.90;18.82;;;;;;;19.77;65.97;100187.30;1722158;81;25804;-73
2021/07/26 05:22:09;;;;;;;32.53;17.80;;;;;;;19.83;65.93;100188.61;1714380;81;25772;-72
2021/07/26 05:24:35;;;;;;;28.15;17.48;;;;;;;19.91;65.88;100199.16;1719553;81;27396;-75
2021/07/26 05:27:04;;;;;;;25.60;17.42;;;;;;;19.97;65.81;100203.20;1721728;80;25844;-72
2021/07/26 05:29:31;;;;;;;30.00;16.65;;;;;;;20.00;65.71;100196.98;1720112;81;25900;-72
2021/07/26 05:32:00;;;;;;;31.57;18.15;;;;;;;20.03;65.74;100195.84;1694579;82;25875;-75
2021/07/26 05:34:27;;;;;;;26.37;17.57;;;;;;;20.09;65.73;100200.23;1716282;81;25913;-74
2021/07/26 05:36:54;;;;;;;24.30;16.87;;;;;;;20.13;65.59;100194.52;1718063;81;27388;-75
2021/07/26 05:39:24;;;;;;;25.15;16.25;;;;;;;20.16;65.64;100201.91;1709128;81;26460;-74
2021/07/26 05:41:59;;;;;;;28.27;17.30;;;;;;;20.22;65.58;100206.80;1718764;81;26237;-74
2021/07/26 05:44:27;;;;;;;29.05;16.17;;;;;;;20.28;65.51;100204.02;1715825;81;26319;-74
2021/07/26 05:46:53;;;;;;;23.73;16.35;;;;;;;20.34;65.46;100198.02;1717341;81;25730;-74
2021/07/26 05:49:19;;;;;;;26.55;15.48;;;;;;;20.34;65.35;100189.85;1714502;81;27428;-76
2021/07/26 05:51:47;;;;;;;21.00;15.40;;;;;;;20.38;65.39;100199.46;1712556;81;25946;-78
2021/07/26 05:54:12;;;;;;;26.48;15.90;;;;;;;20.43;65.32;100200.44;1713722;81;25841;-77
2021/07/26 05:56:46;;;;;;;27.00;15.10;;;;;;;20.50;65.31;100192.92;1708166;81;25865;-80
2021/07/26 05:59:15;;;;;;;24.20;13.60;;;;;;;20.58;65.19;100197.66;1696905;82;42512;-79
2021/07/26 06:01:48;;;;;;;19.17;14.63;;;;;;;20.67;65.19;100196.31;1716325;81;27355;-81
2021/07/26 06:04:23;;;;;;;20.32;12.68;;;;;;;20.76;65.03;100201.91;1713781;82;25778;-81
2021/07/26 06:06:54;;;;;;;23.42;14.55;;;;;;;20.80;64.99;100198.77;1713038;81;25820;-80
2021/07/26 06:09:21;;;;;;;33.58;15.13;;;;;;;20.81;64.88;100192.78;1706990;82;26438;-79
2021/07/26 06:11:52;;;;;;;23.27;14.38;;;;;;;20.93;64.94;100197.08;1725211;80;25871;-77
2021/07/26 06:14:19;;;;;;;20.90;13.78;;;;;;;21.03;64.81;100201.52;1724623;82;27511;-80
2021/07/26 06:16:49;;;;;;;29.60;14.35;;;;;;;21.15;64.69;100202.23;1715546;81;25997;-79
2021/07/26 06:19:16;;;;;;;22.40;14.58;;;;;;;21.28;64.61;100207.42;1727333;80;25812;-79
2021/07/26 06:21:49;;;;;;;22.42;15.00;;;;;;;21.37;64.47;100207.91;1734768;80;25792;-78
2021/07/26 06:24:17;;;;;;;25.65;13.72;;;;;;;21.41;64.08;100217.52;1736439;80;25841;-78
2021/07/26 06:26:44;;;;;;;21.07;13.78;;;;;;;21.44;64.25;100215.86;1744944;80;27639;-79
2021/07/26 06:29:10;;;;;;;19.30;12.60;;;;;;;21.60;64.10;100221.56;1724371;80;26311;-81
2021/07/26 06:31:37;;;;;;;18.23;13.83;;;;;;;21.86;63.49;100225.87;1717710;81;26511;-83
2021/07/26 06:34:06;;;;;;;20.17;13.05;;;;;;;21.95;63.85;100217.30;1725453;81;25873;-84
2021/07/26 06:36:35;;;;;;;18.95;13.50;;;;;;;22.06;63.43;100223.95;1720987;80;25831;-83
2021/07/26 06:39:00;;;;;;;21.95;13.32;;;;;;;22.06;63.43;100223.95;1698459;82;27348;-79
2021/07/26 06:41:26;;;;;;;20.17;13.78;;;;;;;22.16;63.50;100224.77;1691841;82;26493;-84
2021/07/26 06:43:53;;;;;;;22.45;13.55;;;;;;;22.31;63.32;100226.50;1724746;81;25273;-75
2021/07/26 06:46:20;;;;;;;19.85;13.95;;;;;;;22.36;63.14;100215.98;1718296;81;25798;-77
2021/07/26 06:48:46;;;;;;;23.75;13.68;;;;;;;22.41;62.92;100226.44;1674810;83;26427;-77
2021/07/26 06:51:12;;;;;;;23.75;14.07;;;;;;;22.46;62.80;100233.67;1672821;83;27459;-75
2021/07/26 06:53:38;;;;;;;21.90;13.98;;;;;;;22.53;62.60;100233.41;1685799;82;26528;-74
2021/07/26 06:56:06;;;;;;;27.60;13.70;;;;;;;22.61;62.54;100234.36;1686132;82;25819;-85
2021/07/26 06:58:33;;;;;;;17.25;12.90;;;;;;;22.75;62.45;100234.85;1719916;81;25846;-78
2021/07/26 07:01:12;;;;;;;27.58;12.90;;;;;;;22.86;62.22;100242.35;1712999;81;25780;-75
2021/07/26 07:03:46;;;;;;;23.38;12.05;;;;;;;22.93;61.98;100231.16;1724003;80;27426;-75
2021/07/26 07:06:15;;;;;;;20.00;13.22;;;;;;;22.96;61.81;100230.84;1707126;81;26595;-75
2021/07/26 07:08:42;;;;;;;23.45;13.13;;;;;;;23.03;61.55;100231.58;1711137;81;25822;-75
2021/07/26 07:11:14;;;;;;;20.82;11.75;;;;;;;22.91;61.14;100229.08;1710406;81;26656;-77
2021/07/26 07:13:43;;;;;;;17.48;12.70;;;;;;;22.85;61.23;100225.61;1720462;81;25871;-77
2021/07/26 07:16:12;;;;;;;22.13;12.70;;;;;;;22.96;61.17;100224.01;1720190;80;27516;-83
2021/07/26 07:18:40;;;;;;;17.75;12.63;;;;;;;23.02;60.98;100223.03;1729352;80;26428;-88
2021/07/26 07:21:06;;;;;;;21.77;11.88;;;;;;;23.15;60.95;100227.09;1714342;81;25723;-88
2021/07/26 07:23:32;;;;;;;20.08;11.75;;;;;;;23.29;60.78;100233.87;1722932;81;25779;-87
2021/07/26 07:25:59;;;;;;;24.10;12.73;;;;;;;23.29;60.51;100225.66;1730348;81;25950;-86
2021/07/26 07:28:25;;;;;;;20.82;11.45;;;;;;;23.37;60.38;100234.45;1739572;80;28107;-87
2021/07/26 07:30:58;;;;;;;17.37;10.88;;;;;;;23.43;60.27;100233.27;1722328;80;25944;-81
2021/07/26 07:33:25;;;;;;;23.65;12.37;;;;;;;23.52;60.18;100233.69;1699291;81;25850;-85
2021/07/26 07:35:55;;;;;;;21.25;11.35;;;;;;;23.64;60.05;100228.33;1723833;80;25832;-83
2021/07/26 07:38:27;;;;;;;22.50;11.73;;;;;;;23.73;59.80;100233.34;1733423;80;25898;-82
2021/07/26 07:40:53;;;;;;;24.07;10.28;;;;;;;23.77;59.61;100236.11;1715148;80;27449;-79
2021/07/26 07:43:21;;;;;;;25.27;11.43;;;;;;;23.87;59.51;100234.64;1720210;82;26164;-75
2021/07/26 07:45:47;;;;;;;25.00;11.80;;;;;;;23.93;59.15;100233.48;1689116;82;25789;-82
2021/07/26 07:48:15;;;;;;;17.52;11.55;;;;;;;23.95;58.97;100230.58;1722869;80;26271;-81
2021/07/26 07:50:42;;;;;;;42.25;11.68;;;;;;;23.92;58.73;100238.60;1721200;80;25777;-83
2021/07/26 07:53:08;;;;;;;14.85;10.45;;;;;;;23.99;58.69;100227.00;1702762;82;27303;-81
2021/07/26 07:55:36;;;;;;;15.15;10.78;;;;;;;24.07;58.50;100228.41;1675665;83;25875;-81
2021/07/26 07:58:03;;;;;;;17.23;11.48;;;;;;;24.03;57.92;100225.66;1683699;83;25751;-81
2021/07/26 08:00:29;;;;;;;15.88;11.25;;;;;;;24.01;57.90;100227.19;1675646;83;26326;-76
2021/07/26 08:02:59;;;;;;;19.95;10.82;;;;;;;24.10;57.81;100226.21;1675906;83;26398;-80
2021/07/26 08:05:27;;;;;;;15.03;10.32;;;;;;;24.20;57.67;100218.73;1723613;80;28290;-84
2021/07/26 08:07:53;;;;;;;16.62;9.43;;;;;;;24.28;57.49;100226.16;1728520;80;27188;-82
2021/07/26 08:10:19;;;;;;;16.20;9.90;;;;;;;24.24;57.11;100229.70;1723235;80;25826;-82
2021/07/26 08:12:46;;;;;;;16.27;10.25;;;;;;;24.26;57.05;100229.05;1727298;80;25739;-81
2021/07/26 08:15:12;;;;;;;13.35;9.05;;;;;;;24.33;56.86;100235.25;1732231;80;25799;-81
2021/07/26 08:17:42;;;;;;;14.23;9.78;;;;;;;24.40;56.76;100227.57;1715295;81;27421;-81
2021/07/26 08:20:12;;;;;;;16.02;10.05;;;;;;;24.48;56.55;100230.34;1717520;81;26672;-82
2021/07/26 08:22:38;;;;;;;13.78;9.60;;;;;;;24.47;56.22;100224.52;1717252;81;25883;-82
2021/07/26 08:25:06;;;;;;;15.48;9.90;;;;;;;24.46;56.11;100232.39;1721009;81;25819;-82
2021/07/26 08:27:50;;;;;;;13.18;10.10;;;;;;;24.44;56.18;100222.11;1720858;81;25831;-81
2021/07/26 08:30:33;;;;;;;14.43;10.13;;;;;;;24.49;56.05;100225.20;1717107;81;28679;-82
2021/07/26 08:33:00;;;;;;;15.70;10.50;;;;;;;24.54;55.90;100232.42;1722090;81;26432;-82
2021/07/26 08:35:27;;;;;;;20.05;14.05;;;;;;;24.52;55.85;100233.09;1723538;81;25888;-82
2021/07/26 08:37:54;;;;;;;16.37;10.60;;;;;;;24.51;55.74;100236.00;1710714;81;25924;-82
2021/07/26 08:40:22;;;;;;;13.65;11.65;;;;;;;24.52;55.78;100234.98;1688184;83;25858;-82
2021/07/26 08:42:51;;;;;;;17.75;11.35;;;;;;;24.59;55.75;100231.92;1710732;81;27419;-82
2021/07/26 08:45:17;;;;;;;16.20;9.25;;;;;;;24.65;55.69;100229.02;1696588;83;25851;-82
2021/07/26 08:47:46;;;;;;;14.28;10.15;;;;;;;24.73;55.59;100235.90;1720119;81;25835;-82
2021/07/26 08:50:16;;;;;;;18.55;10.53;;;;;;;24.75;55.36;100238.81;1715353;81;25828;-82
2021/07/26 08:52:50;;;;;;;20.45;10.32;;;;;;;24.78;55.31;100237.11;1715195;81;26350;-82
2021/07/26 08:55:19;;;;;;;12.37;9.43;;;;;;;24.87;55.21;100240.22;1709932;82;26483;-82
2021/07/26 08:57:47;;;;;;;15.23;10.80;;;;;;;24.91;55.01;100238.85;1720263;81;25970;-82
2021/07/26 09:00:16;;;;;;;14.83;10.13;;;;;;;24.89;54.82;100236.80;1708328;81;25914;-82
2021/07/26 09:02:42;;;;;;;14.00;10.48;;;;;;;24.89;54.81;100237.30;1689591;82;25880;-82
2021/07/26 09:05:10;;;;;;;18.45;11.55;;;;;;;24.88;54.74;100233.70;1670202;83;26311;-82
2021/07/26 09:07:42;;;;;;;14.93;9.75;;;;;;;24.96;54.74;100238.34;1686023;83;28249;-82
2021/07/26 09:10:24;;;;;;;16.30;10.85;;;;;;;25.07;54.68;100233.94;1680672;83;25753;-82
2021/07/26 09:12:55;;;;;;;30.50;12.07;;;;;;;25.17;54.48;100233.77;1724058;81;26088;-82
2021/07/26 09:15:36;;;;;;;21.87;11.50;;;;;;;25.11;54.15;100233.08;1720578;81;25855;-82
2021/07/26 09:18:17;;;;;;;15.60;10.15;;;;;;;24.91;53.73;100228.40;1696087;81;25898;-82
2021/07/26 09:20:49;;;;;;;14.78;10.50;;;;;;;24.79;54.00;100228.38;1682026;82;27483;-81
2021/07/26 09:23:17;;;;;;;20.32;10.60;;;;;;;24.91;54.16;100227.03;1703575;82;25796;-83
2021/07/26 09:25:49;;;;;;;20.48;11.48;;;;;;;25.12;54.14;100226.57;1688558;82;25931;-81
2021/07/26 09:28:23;;;;;;;17.73;11.08;;;;;;;25.28;54.03;100235.33;1685857;82;26514;-78
2021/07/26 09:30:54;;;;;;;11.75;9.73;;;;;;;25.44;53.98;100230.69;1688809;82;25786;-79
2021/07/26 09:33:26;;;;;;;20.82;11.05;;;;;;;25.61;53.83;100234.28;1685785;82;27464;-79
2021/07/26 09:36:22;;;;;;;15.78;10.80;;;;;;;25.69;53.61;100235.67;1684329;82;25962;-78
2021/07/26 09:38:53;;;;;;;13.18;9.93;;;;;;;25.70;53.25;100240.13;1681384;82;25871;-77
2021/07/26 09:41:43;;;;;;;18.82;11.22;;;;;;;25.64;53.01;100242.69;1695967;82;25948;-76
2021/07/26 09:44:10;;;;;;;14.60;10.30;;;;;;;25.59;52.86;100240.45;1685077;81;25775;-80
2021/07/26 09:46:39;;;;;;;13.15;10.35;;;;;;;25.63;52.78;100236.34;1691906;82;28311;-76
2021/07/26 09:49:13;;;;;;;15.58;10.25;;;;;;;25.68;52.66;100241.34;1695421;82;26310;-78
2021/07/26 09:51:43;;;;;;;19.15;11.35;;;;;;;25.71;52.39;100240.48;1684554;82;25867;-77
2021/07/26 09:54:10;;;;;;;30.72;11.05;;;;;;;25.68;52.40;100235.33;1691452;81;26095;-81
2021/07/26 09:56:36;;;;;;;17.92;9.70;;;;;;;25.77;52.32;100237.55;1689447;82;25951;-79
2021/07/26 09:59:03;;;;;;;15.08;10.32;;;;;;;25.88;52.22;100240.79;1693401;82;27379;-76
2021/07/26 10:01:29;;;;;;;13.10;10.03;;;;;;;25.98;52.13;100239.22;1658092;84;25858;-77
2021/07/26 10:04:00;;;;;;;12.75;10.23;;;;;;;26.00;51.89;100244.53;1662374;83;25864;-76
2021/07/26 10:06:27;;;;;;;13.75;9.40;;;;;;;26.02;51.93;100236.43;1684881;82;26728;-79
2021/07/26 10:08:56;;;;;;;16.60;10.15;;;;;;;26.13;51.82;100244.30;1688838;82;25884;-77
2021/07/26 10:11:23;;;;;;;14.35;10.68;;;;;;;26.15;51.58;100239.48;1693226;82;27374;-77
2021/07/26 10:13:50;;;;;;;13.40;10.72;;;;;;;26.17;51.47;100240.16;1686335;82;25856;-77
2021/07/26 10:16:18;;;;;;;14.80;10.25;;;;;;;26.28;51.40;100239.44;1689803;82;26618;-78
2021/07/26 10:18:46;;;;;;;15.43;10.55;;;;;;;26.40;51.35;100236.16;1704155;80;25880;-77
2021/07/26 10:21:19;;;;;;;17.35;10.45;;;;;;;26.51;51.30;100233.02;1721933;80;25813;-82
2021/07/26 10:23:55;;;;;;;14.30;9.75;;;;;;;26.63;51.13;100229.34;1696660;82;26700;-84
2021/07/26 10:26:40;;;;;;;18.92;10.70;;;;;;;26.72;50.78;100223.28;1732460;80;25980;-77
2021/07/26 10:29:08;;;;;;;17.45;10.05;;;;;;;26.66;50.59;100228.98;1724926;80;25876;-77
2021/07/26 10:31:37;;;;;;;17.30;10.63;;;;;;;26.71;50.49;100233.42;1734820;80;25715;-77
2021/07/26 10:34:13;;;;;;;19.98;11.68;;;;;;;26.81;50.28;100228.55;1715519;81;25775;-76
2021/07/26 10:36:49;;;;;;;18.98;10.72;;;;;;;26.88;50.09;100227.82;1735133;80;27441;-80
2021/07/26 10:39:19;;;;;;;19.77;11.05;;;;;;;26.95;50.08;100228.80;1730975;80;25795;-79
2021/07/26 10:41:51;;;;;;;15.72;10.23;;;;;;;27.04;49.92;100220.87;1706204;81;25845;-78
2021/07/26 10:44:22;;;;;;;18.05;10.15;;;;;;;27.07;49.67;100231.51;1727998;80;26039;-78
2021/07/26 10:47:04;;;;;;;15.78;10.00;;;;;;;27.05;49.60;100228.94;1727889;80;25983;-80
2021/07/26 10:49:43;;;;;;;16.10;10.25;;;;;;;27.12;49.51;100229.06;1730376;80;28119;-79
2021/07/26 10:52:31;;;;;;;21.40;10.50;;;;;;;27.27;49.52;100221.72;1736286;80;26005;-84
2021/07/26 10:54:59;;;;;;;13.98;9.68;;;;;;;27.51;49.39;100236.31;1748633;80;25880;-79
2021/07/26 10:57:46;;;;;;;12.85;9.70;;;;;;;27.72;49.04;100233.21;1740527;80;26396;-80
2021/07/26 11:00:16;;;;;;;16.27;10.38;;;;;;;27.81;48.50;100232.61;1726263;80;25794;-79
2021/07/26 11:02:46;;;;;;;16.55;9.70;;;;;;;27.86;48.11;100223.78;1715895;81;27312;-81
2021/07/26 11:05:30;;;;;;;16.97;10.70;;;;;;;27.88;47.80;100220.31;1703162;81;26019;-83
2021/07/26 11:08:23;;;;;;;15.05;10.38;;;;;;;27.85;47.54;100221.55;1718146;81;25880;-80
2021/07/26 11:10:54;;;;;;;13.45;9.43;;;;;;;27.96;47.45;100219.70;1669688;82;26460;-80
2021/07/26 11:13:20;;;;;;;14.47;10.08;;;;;;;28.15;47.39;100227.93;1731072;81;25736;-79
2021/07/26 11:15:52;;;;;;;12.85;9.30;;;;;;;28.31;47.17;100222.25;1714454;82;27445;-81
2021/07/26 11:18:39;;;;;;;15.28;9.83;;;;;;;28.53;46.85;100221.80;1734634;80;25891;-78
2021/07/26 11:21:12;;;;;;;13.80;9.83;;;;;;;28.63;46.50;100226.45;1691056;82;26401;-78